Terminal Aerodrome Forecast
Issued by NWS

Home | Current Version | Previous Version | Text Only | Print | Product List | Glossary On
Versions: 1 2 3 4 5 6 7 8 9 10 11 12 13 14 15 16
215
FTUS43 KMQT 091141 AAA
TAFIWD
TAF AMD
KIWD 091141Z 0912/1012 28010KT 3SM -SHSN BKN015
      TEMPO 0912/0915 P6SM BKN035
     FM091500 30009KT 1 1/2SM -SHSN BKN015
     FM091700 29009KT 3SM -SHSN BKN015
     FM092100 27008KT 6SM -SHSN OVC020
     FM100200 26007KT 3SM -SHSN OVC020
     FM100600 26007KT P6SM BKN015=

USA.gov is the U.S. government's official web portal to all federal, state and local government web resources and services.